createdAt,value
2022-08-30T00:00:49.842Z,88.36
2022-08-30T00:03:52.940Z,88.87
2022-08-30T00:06:55.000Z,88.92
2022-08-30T00:09:59.118Z,89.94
2022-08-30T00:13:02.490Z,89.42
2022-08-30T00:16:07.272Z,90.04
2022-08-30T00:19:09.278Z,89.83
2022-08-30T00:22:11.804Z,90.26
2022-08-30T00:25:15.971Z,90.33
2022-08-30T00:28:18.231Z,89.15
2022-08-30T00:31:20.463Z,88.52
2022-08-30T00:34:22.406Z,89.55
2022-08-30T00:37:24.999Z,90.37
2022-08-30T00:40:28.185Z,91.63
2022-08-30T00:43:32.180Z,92.27
2022-08-30T00:46:34.583Z,92.48
2022-08-30T00:49:37.765Z,92.45
2022-08-30T00:52:41.803Z,92.04
2022-08-30T00:55:44.413Z,92.50
2022-08-30T00:58:49.612Z,93.43
2022-08-30T01:01:52.732Z,92.98
2022-08-30T01:04:55.677Z,93.06
2022-08-30T01:07:57.716Z,92.29
2022-08-30T01:11:00.227Z,93.35
2022-08-30T01:14:05.245Z,93.13
2022-08-30T01:17:07.976Z,92.75
2022-08-30T01:20:18.396Z,93.42
2022-08-30T01:23:21.536Z,93.71
2022-08-30T01:26:24.832Z,93.22
2022-08-30T01:29:26.901Z,93.10
2022-08-30T01:32:30.051Z,94.09
2022-08-30T01:35:43.969Z,94.58
2022-08-30T01:38:54.975Z,94.66
2022-08-30T01:41:56.944Z,94.61
2022-08-30T01:44:59.146Z,94.43
2022-08-30T01:48:01.669Z,94.94
2022-08-30T01:51:05.429Z,94.95
2022-08-30T01:54:10.457Z,95.31
2022-08-30T01:57:22.950Z,94.49
2022-08-30T02:00:24.998Z,96.22
2022-08-30T02:03:31.238Z,96.81
2022-08-30T02:06:33.181Z,96.50
2022-08-30T02:09:35.078Z,96.51
2022-08-30T02:12:36.923Z,95.76
2022-08-30T02:15:41.406Z,96.43
2022-08-30T02:18:45.366Z,95.50
2022-08-30T02:21:47.294Z,96.59
2022-08-30T02:24:49.339Z,96.94
2022-08-30T02:27:51.250Z,97.52
2022-08-30T02:30:53.676Z,97.59
2022-08-30T02:33:55.696Z,97.85
2022-08-30T02:36:57.510Z,98.46
2022-08-30T02:39:59.378Z,97.93
2022-08-30T02:43:01.392Z,98.42
2022-08-30T02:46:03.627Z,97.64
2022-08-30T02:49:30.283Z,97.32
2022-08-30T02:52:29.374Z,97.72
2022-08-30T02:55:31.583Z,96.71
2022-08-30T02:58:36.941Z,97.99
2022-08-30T03:01:39.627Z,98.36
2022-08-30T03:04:41.459Z,98.01
2022-08-30T03:07:45.712Z,98.71
2022-08-30T03:10:47.574Z,98.98
2022-08-30T03:13:49.605Z,99.44
2022-08-30T03:16:51.700Z,99.45
2022-08-30T03:19:54.365Z,99.70
2022-08-30T03:22:56.236Z,99.09
2022-08-30T03:25:58.163Z,100.00
2022-08-30T03:29:00.081Z,99.99
2022-08-30T03:32:02.878Z,99.67
2022-08-30T03:35:05.785Z,99.68
2022-08-30T03:38:07.786Z,98.74
2022-08-30T03:41:09.920Z,98.58
2022-08-30T03:44:12.035Z,98.70
2022-08-30T03:47:14.886Z,98.66
2022-08-30T03:50:17.438Z,97.65
2022-08-30T03:53:19.765Z,97.71
2022-08-30T03:56:22.304Z,97.77
2022-08-30T03:59:24.331Z,97.56
2022-08-30T04:02:26.928Z,97.21
2022-08-30T04:05:29.444Z,97.99
2022-08-30T04:08:31.527Z,99.21
2022-08-30T04:11:34.479Z,97.81
2022-08-30T04:14:36.365Z,98.37
2022-08-30T04:17:38.333Z,98.10
2022-08-30T04:20:40.518Z,97.96
2022-08-30T04:23:43.703Z,97.55
2022-08-30T04:26:46.059Z,97.23
2022-08-30T04:29:48.366Z,96.74
2022-08-30T04:32:52.064Z,97.06
2022-08-30T04:36:04.087Z,96.89
2022-08-30T04:39:07.385Z,97.14
2022-08-30T04:42:11.789Z,92.97
2022-08-30T04:45:16.431Z,88.99
2022-08-30T04:48:18.677Z,87.71
2022-08-30T04:51:20.709Z,87.48
2022-08-30T04:54:22.832Z,88.93
2022-08-30T04:57:25.718Z,88.84
2022-08-30T05:00:28.049Z,89.50
2022-08-30T05:03:30.594Z,89.74
2022-08-30T05:06:32.708Z,89.85
2022-08-30T05:09:34.717Z,90.18
2022-08-30T05:12:36.696Z,89.76
2022-08-30T05:15:40.757Z,88.99
2022-08-30T05:18:42.703Z,89.62
2022-08-30T05:21:45.298Z,88.64
2022-08-30T05:24:47.580Z,89.36
2022-08-30T05:27:49.614Z,89.28
2022-08-30T05:30:54.121Z,89.21
2022-08-30T05:33:56.552Z,88.55
2022-08-30T05:36:59.825Z,87.92
2022-08-30T05:40:11.105Z,86.72
2022-08-30T05:43:14.469Z,87.52
2022-08-30T05:46:20.157Z,86.39
2022-08-30T05:49:22.454Z,86.38
2022-08-30T05:52:24.445Z,86.47
2022-08-30T05:55:29.682Z,85.14
2022-08-30T05:58:32.058Z,84.36
2022-08-30T06:01:38.023Z,84.44
2022-08-30T06:04:42.037Z,84.20
2022-08-30T06:07:46.039Z,83.59
2022-08-30T06:10:49.530Z,81.33
2022-08-30T06:13:54.137Z,80.68
2022-08-30T06:16:56.112Z,81.60
2022-08-30T06:19:59.235Z,81.15
2022-08-30T06:23:01.718Z,79.55
2022-08-30T06:26:06.001Z,78.53
2022-08-30T06:29:10.125Z,77.58
2022-08-30T06:32:12.279Z,75.47
2022-08-30T06:35:14.583Z,76.07
2022-08-30T06:38:19.261Z,73.38
2022-08-30T06:41:24.230Z,73.98
2022-08-30T06:44:27.004Z,72.84
2022-08-30T06:47:30.192Z,71.55
2022-08-30T06:50:32.601Z,70.35
2022-08-30T06:53:36.138Z,68.65
2022-08-30T06:56:40.330Z,68.39
2022-08-30T06:59:44.889Z,68.33
2022-08-30T07:02:47.318Z,68.03
2022-08-30T07:05:50.907Z,66.70
2022-08-30T07:08:56.430Z,67.98
2022-08-30T07:12:03.393Z,68.08
2022-08-30T07:15:08.223Z,67.05
2022-08-30T07:18:30.812Z,66.25
2022-08-30T07:21:36.482Z,67.20
2022-08-30T07:24:38.970Z,66.48
2022-08-30T07:27:41.839Z,65.60
2022-08-30T07:30:44.151Z,65.95
2022-08-30T07:33:48.044Z,64.44
2022-08-30T07:36:50.281Z,66.04
2022-08-30T07:39:52.709Z,64.87
2022-08-30T07:42:55.341Z,65.50
2022-08-30T07:46:05.882Z,65.20
2022-08-30T07:49:11.096Z,65.57
2022-08-30T07:52:13.927Z,64.60
2022-08-30T07:55:16.604Z,64.19
2022-08-30T07:58:21.780Z,64.38
2022-08-30T08:01:24.224Z,65.68
2022-08-30T08:28:02.854Z,63.12
2022-08-30T08:31:18.231Z,61.55
2022-08-30T08:34:23.825Z,63.62
2022-08-30T08:37:28.268Z,62.20
2022-08-30T08:40:36.602Z,61.54
2022-08-30T08:43:38.864Z,60.02
2022-08-30T08:46:58.190Z,59.07
2022-08-30T08:50:05.931Z,59.85
2022-08-30T08:53:52.766Z,58.98
2022-08-30T08:56:55.115Z,58.31
2022-08-30T09:00:00.479Z,57.05
2022-08-30T09:03:05.974Z,57.52
2022-08-30T09:06:46.081Z,58.07
2022-08-30T09:09:49.081Z,57.74
2022-08-30T09:12:51.184Z,56.70
2022-08-30T09:15:59.588Z,54.49
2022-08-30T09:19:02.789Z,54.83
2022-08-30T09:22:24.874Z,53.71
2022-08-30T09:25:41.859Z,53.02
2022-08-30T09:28:49.475Z,53.00
2022-08-30T09:32:22.532Z,53.19
2022-08-30T09:35:37.756Z,53.92
2022-08-30T09:38:40.121Z,51.92
2022-08-30T09:41:44.986Z,54.63
2022-08-30T09:44:47.343Z,51.75
2022-08-30T09:47:49.430Z,52.48
2022-08-30T09:51:06.126Z,50.44
2022-08-30T09:54:17.870Z,49.15
2022-08-30T09:57:53.342Z,52.67
2022-08-30T10:01:20.473Z,50.46
2022-08-30T10:04:41.434Z,50.76
2022-08-30T10:08:19.560Z,48.93
2022-08-30T10:11:43.962Z,48.90
2022-08-30T10:14:49.583Z,50.62
2022-08-30T10:17:56.269Z,48.22
2022-08-30T10:21:19.034Z,48.66
2022-08-30T10:24:31.238Z,49.40
2022-08-30T10:27:42.963Z,50.09
2022-08-30T10:30:54.138Z,51.40
2022-08-30T10:34:01.194Z,49.43
2022-08-30T10:37:12.481Z,48.65
2022-08-30T10:40:53.334Z,48.04
2022-08-30T10:44:00.113Z,49.26
2022-08-30T10:47:23.113Z,46.85
2022-08-30T10:50:30.018Z,49.37
2022-08-30T10:53:39.836Z,48.21
2022-08-30T10:56:43.928Z,48.65
2022-08-30T10:59:51.229Z,48.34
2022-08-30T11:03:12.045Z,46.82
2022-08-30T11:06:53.883Z,48.26
2022-08-30T11:10:26.296Z,48.14
2022-08-30T11:13:30.798Z,46.89
2022-08-30T11:16:48.470Z,44.91
2022-08-30T11:19:51.086Z,47.43
2022-08-30T11:23:16.105Z,45.48
2022-08-30T11:26:48.603Z,47.74
2022-08-30T11:29:50.958Z,46.98
2022-08-30T11:33:09.847Z,43.93
2022-08-30T11:36:37.401Z,44.05
2022-08-30T11:39:41.029Z,46.45
2022-08-30T11:42:46.196Z,43.76
2022-08-30T11:45:52.711Z,46.99
2022-08-30T11:49:15.588Z,47.58
2022-08-30T11:52:46.947Z,45.12
2022-08-30T11:56:10.449Z,45.25
2022-08-30T11:59:27.854Z,44.95
2022-08-30T12:02:53.168Z,43.61
2022-08-30T12:06:01.547Z,47.43
2022-08-30T12:09:08.303Z,44.87
2022-08-30T12:12:13.059Z,43.75
2022-08-30T12:15:48.149Z,43.33
2022-08-30T12:18:53.492Z,45.10
2022-08-30T12:22:06.163Z,43.48
2022-08-30T12:25:35.190Z,43.58
2022-08-30T12:28:42.102Z,43.23
2022-08-30T12:31:56.135Z,41.75
2022-08-30T12:35:07.610Z,44.00
2022-08-30T12:38:26.767Z,44.06
2022-08-30T12:41:43.479Z,41.36
2022-08-30T12:44:48.050Z,44.09
2022-08-30T12:47:58.834Z,43.50
2022-08-30T12:51:01.262Z,42.93
2022-08-30T12:54:20.794Z,43.36
2022-08-30T12:57:37.545Z,43.85
2022-08-30T13:00:47.373Z,43.66
2022-08-30T13:04:17.449Z,41.48
2022-08-30T13:07:32.540Z,41.41
2022-08-30T13:10:36.737Z,41.75
2022-08-30T13:13:51.973Z,40.47
2022-08-30T13:17:06.843Z,41.54
2022-08-30T13:20:12.747Z,40.43
2022-08-30T13:23:23.964Z,41.67
2022-08-30T13:26:29.510Z,42.27
2022-08-30T13:29:34.893Z,42.74
2022-08-30T13:32:39.056Z,42.23
2022-08-30T13:35:42.770Z,42.13
2022-08-30T13:38:45.041Z,43.42
2022-08-30T13:41:47.436Z,42.37
2022-08-30T13:44:49.443Z,43.42
2022-08-30T13:47:52.581Z,42.81
2022-08-30T13:50:56.032Z,41.60
2022-08-30T13:53:58.551Z,42.13
2022-08-30T13:57:02.885Z,41.83
2022-08-30T14:00:14.487Z,42.11
2022-08-30T14:03:18.508Z,42.20
2022-08-30T14:06:33.610Z,43.35
2022-08-30T14:09:38.605Z,43.59
2022-08-30T14:13:02.543Z,41.94
2022-08-30T14:19:29.454Z,43.45
2022-08-30T14:22:32.024Z,42.05
2022-08-30T14:25:34.932Z,44.85
2022-08-30T14:28:37.299Z,44.17
2022-08-30T14:31:41.701Z,44.14
2022-08-30T14:34:43.794Z,43.46
2022-08-30T14:37:49.020Z,44.14
2022-08-30T14:40:51.556Z,43.09
2022-08-30T14:43:53.815Z,43.45
2022-08-30T14:46:57.029Z,44.14
2022-08-30T14:50:01.315Z,45.25
2022-08-30T14:53:05.433Z,46.91
2022-08-30T14:56:13.640Z,46.25
2022-08-30T14:59:16.534Z,46.13
2022-08-30T15:02:22.124Z,44.84
2022-08-30T15:05:27.526Z,46.53
2022-08-30T15:08:33.485Z,45.89
2022-08-30T15:11:39.046Z,46.77
2022-08-30T15:14:41.592Z,47.68
2022-08-30T15:17:45.763Z,48.18
2022-08-30T15:20:49.569Z,49.16
2022-08-30T15:23:52.411Z,48.43
2022-08-30T15:26:54.793Z,49.42
2022-08-30T15:29:56.797Z,49.50
2022-08-30T15:32:59.357Z,49.26
2022-08-30T15:36:04.327Z,49.12
2022-08-30T15:39:14.005Z,49.71
2022-08-30T15:42:19.526Z,50.27
2022-08-30T15:45:22.776Z,50.62
2022-08-30T15:48:25.342Z,50.79
2022-08-30T15:51:28.641Z,51.33
2022-08-30T15:54:35.449Z,51.00
2022-08-30T15:57:37.749Z,51.17
2022-08-30T16:00:44.895Z,51.62
2022-08-30T16:03:47.770Z,51.30
2022-08-30T16:06:51.565Z,51.92
2022-08-30T16:09:54.547Z,52.16
2022-08-30T16:13:00.538Z,52.85
2022-08-30T16:16:05.718Z,53.21
2022-08-30T16:19:09.037Z,53.78
2022-08-30T16:22:11.776Z,54.09
2022-08-30T16:25:14.952Z,54.25
2022-08-30T16:28:18.024Z,54.65
2022-08-30T16:31:21.661Z,54.69
2022-08-30T16:34:24.913Z,54.96
2022-08-30T16:37:28.222Z,55.05
2022-08-30T16:40:31.213Z,55.35
2022-08-30T16:43:34.193Z,55.27
2022-08-30T16:46:37.130Z,56.14
2022-08-30T16:49:39.816Z,56.38
2022-08-30T16:52:44.322Z,56.97
2022-08-30T16:55:46.459Z,57.44
2022-08-30T16:58:49.543Z,57.64
2022-08-30T17:01:52.296Z,57.96
2022-08-30T17:04:54.631Z,57.55
2022-08-30T17:07:59.438Z,58.07
2022-08-30T17:11:01.695Z,57.52
2022-08-30T17:14:05.845Z,58.07
2022-08-30T17:17:10.698Z,59.09
2022-08-30T17:20:13.833Z,59.04
2022-08-30T17:23:15.981Z,59.50
2022-08-30T17:26:18.611Z,59.88
2022-08-30T17:29:21.699Z,60.88
2022-08-30T17:32:24.089Z,61.72
2022-08-30T17:35:27.020Z,61.58
2022-08-30T17:38:30.061Z,62.24
2022-08-30T17:41:32.936Z,62.72
2022-08-30T17:44:36.481Z,62.54
2022-08-30T17:47:40.085Z,62.21
2022-08-30T17:50:42.376Z,62.52
2022-08-30T17:53:45.112Z,62.75
2022-08-30T17:56:48.463Z,62.78
2022-08-30T17:59:50.772Z,62.35
2022-08-30T18:02:54.127Z,61.94
2022-08-30T18:05:56.525Z,62.43
2022-08-30T18:08:59.372Z,62.69
2022-08-30T18:12:01.820Z,62.13
2022-08-30T18:15:12.117Z,62.16
2022-08-30T18:18:15.482Z,61.77
2022-08-30T18:21:22.111Z,61.97
2022-08-30T18:24:25.225Z,61.82
2022-08-30T18:27:28.337Z,61.58
2022-08-30T18:30:34.717Z,61.48
2022-08-30T18:33:42.840Z,60.79
2022-08-30T18:36:46.094Z,60.37
2022-08-30T18:39:50.413Z,60.20
2022-08-30T18:42:57.393Z,59.39
2022-08-30T18:46:05.251Z,59.52
2022-08-30T18:49:07.366Z,60.21
2022-08-30T18:52:11.195Z,58.94
2022-08-30T18:55:14.123Z,58.45
2022-08-30T18:58:17.314Z,57.61
2022-08-30T19:01:23.041Z,57.46
2022-08-30T19:04:30.149Z,56.66
2022-08-30T19:07:37.762Z,57.50
2022-08-30T19:10:41.532Z,57.79
2022-08-30T19:13:45.097Z,58.38
2022-08-30T19:16:47.550Z,58.92
2022-08-30T19:19:52.404Z,58.19
2022-08-30T19:23:08.830Z,59.05
2022-08-30T19:26:11.870Z,59.30
2022-08-30T19:29:14.803Z,59.66
2022-08-30T19:32:17.115Z,59.99
2022-08-30T19:35:20.722Z,60.01
2022-08-30T19:38:23.544Z,60.68
2022-08-30T19:41:30.572Z,60.64
2022-08-30T19:44:32.652Z,60.64
2022-08-30T19:47:35.145Z,60.88
2022-08-30T19:50:37.962Z,59.72
2022-08-30T19:53:40.593Z,60.28
2022-08-30T19:56:43.807Z,60.62
2022-08-30T19:59:46.176Z,59.83
2022-08-30T20:02:51.172Z,61.03
2022-08-30T20:05:54.528Z,61.99
2022-08-30T20:12:20.500Z,60.12
2022-08-30T20:15:23.601Z,62.79
2022-08-30T20:18:26.418Z,65.14
2022-08-30T20:21:29.125Z,65.06
2022-08-30T20:24:33.402Z,64.31
2022-08-30T20:27:37.251Z,63.62
2022-08-30T20:30:39.328Z,63.99
2022-08-30T20:33:41.541Z,63.09
2022-08-30T20:36:44.049Z,63.66
2022-08-30T20:39:46.603Z,62.43
2022-08-30T20:42:49.297Z,64.17
2022-08-30T20:45:52.409Z,64.39
2022-08-30T20:48:54.492Z,63.01
2022-08-30T20:51:56.799Z,63.57
2022-08-30T20:54:58.741Z,64.09
2022-08-30T20:58:01.182Z,64.67
2022-08-30T21:01:03.957Z,63.23
2022-08-30T21:04:07.038Z,64.05
2022-08-30T21:07:09.237Z,63.61
2022-08-30T21:10:12.275Z,64.35
2022-08-30T21:13:14.471Z,64.57
2022-08-30T21:16:17.294Z,64.32
2022-08-30T21:19:24.225Z,64.53
2022-08-30T21:22:26.651Z,64.75
2022-08-30T21:25:28.958Z,64.77
2022-08-30T21:28:31.305Z,64.58
2022-08-30T21:31:33.584Z,64.60
2022-08-30T21:34:54.574Z,65.47
2022-08-30T21:37:56.788Z,65.43
2022-08-30T21:40:59.196Z,65.70
2022-08-30T21:44:03.634Z,65.83
2022-08-30T21:47:06.624Z,68.43
2022-08-30T21:50:11.729Z,69.37
2022-08-30T21:53:17.145Z,68.42
2022-08-30T21:56:22.074Z,68.67
2022-08-30T21:59:24.308Z,69.01
2022-08-30T22:02:26.318Z,69.16
2022-08-30T22:05:28.426Z,69.27
2022-08-30T22:08:30.446Z,69.72
2022-08-30T22:11:34.555Z,69.98
2022-08-30T22:14:36.859Z,70.30
2022-08-30T22:17:39.169Z,70.39
2022-08-30T22:20:41.452Z,69.46
2022-08-30T22:23:45.183Z,69.30
2022-08-30T22:26:47.680Z,71.41
2022-08-30T22:29:50.130Z,70.73
2022-08-30T22:32:52.671Z,71.43
2022-08-30T22:35:55.587Z,70.32
2022-08-30T22:38:58.215Z,69.38
2022-08-30T22:42:00.432Z,69.55
2022-08-30T22:45:02.502Z,69.75
2022-08-30T22:48:04.467Z,70.31
2022-08-30T22:51:07.419Z,70.42
2022-08-30T22:54:10.413Z,71.44
2022-08-30T22:57:15.905Z,70.91
2022-08-30T23:00:20.268Z,70.23
2022-08-30T23:03:22.652Z,71.48
2022-08-30T23:06:25.413Z,73.01
2022-08-30T23:09:29.090Z,72.79
2022-08-30T23:12:31.502Z,70.95
2022-08-30T23:15:33.289Z,70.24
2022-08-30T23:18:38.347Z,72.08
2022-08-30T23:21:40.161Z,71.95
2022-08-30T23:25:00.721Z,72.46
2022-08-30T23:28:21.268Z,72.25
2022-08-30T23:31:41.955Z,72.00
2022-08-30T23:35:03.096Z,73.16
2022-08-30T23:38:24.477Z,72.28
2022-08-30T23:41:45.041Z,72.30
2022-08-30T23:45:05.650Z,72.57
2022-08-30T23:48:26.317Z,74.96
2022-08-30T23:51:47.383Z,76.08
2022-08-30T23:55:08.351Z,75.75
2022-08-30T23:58:28.848Z,77.15
